createdAt,value
2023-03-05T00:01:11.981Z,99.90
2023-03-05T00:03:38.984Z,99.90
2023-03-05T00:06:06.466Z,99.90
2023-03-05T00:11:03.490Z,99.90
2023-03-05T00:13:30.879Z,99.90
2023-03-05T00:18:25.561Z,99.90
2023-03-05T00:20:52.466Z,99.90
2023-03-05T00:23:19.343Z,99.90
2023-03-05T00:25:46.707Z,99.90
2023-03-05T00:28:14.156Z,99.90
2023-03-05T00:30:41.278Z,99.90
2023-03-05T00:33:09.175Z,99.90
2023-03-05T00:35:45.220Z,99.90
2023-03-05T00:38:13.038Z,99.90
2023-03-05T00:40:41.337Z,99.90
2023-03-05T00:45:35.948Z,99.90
2023-03-05T00:48:04.047Z,99.90
2023-03-05T00:55:25.776Z,99.90
2023-03-05T00:57:52.736Z,99.90
2023-03-05T01:00:19.777Z,99.90
2023-03-05T01:02:46.733Z,99.90
2023-03-05T01:05:14.661Z,99.90
2023-03-05T01:07:41.559Z,99.90
2023-03-05T01:10:09.351Z,99.90
2023-03-05T01:12:36.379Z,99.90
2023-03-05T01:15:04.339Z,99.90
2023-03-05T01:17:31.328Z,99.90
2023-03-05T01:19:58.142Z,99.90
2023-03-05T01:22:25.142Z,99.90
2023-03-05T01:24:52.269Z,99.90
2023-03-05T01:29:46.460Z,99.90
2023-03-05T01:32:13.464Z,99.90
2023-03-05T01:37:09.810Z,99.90
2023-03-05T01:42:04.617Z,99.90
2023-03-05T01:44:32.568Z,99.90
2023-03-05T01:49:34.048Z,99.90
2023-03-05T01:52:09.356Z,99.90
2023-03-05T01:54:50.522Z,99.90
2023-03-05T01:57:23.031Z,99.90
2023-03-05T01:59:54.331Z,99.90
2023-03-05T02:02:22.297Z,99.90
2023-03-05T02:04:57.936Z,99.90
2023-03-05T02:07:25.907Z,99.90
2023-03-05T02:09:52.885Z,99.90
2023-03-05T02:14:50.587Z,99.90
2023-03-05T02:17:17.946Z,99.90
2023-03-05T02:19:53.496Z,99.90
2023-03-05T02:22:23.284Z,99.90
2023-03-05T02:24:51.047Z,99.90
2023-03-05T02:27:20.806Z,99.90
2023-03-05T02:29:48.159Z,99.90
2023-03-05T02:34:43.007Z,99.90
2023-03-05T02:37:10.598Z,99.90
2023-03-05T02:39:39.661Z,99.90
2023-03-05T02:42:07.111Z,99.90
2023-03-05T02:44:34.399Z,99.90
2023-03-05T02:47:01.410Z,99.90
2023-03-05T02:49:28.788Z,99.90
2023-03-05T02:51:55.649Z,99.90
2023-03-05T02:56:50.313Z,99.90
2023-03-05T03:01:44.720Z,99.90
2023-03-05T03:04:11.650Z,99.90
2023-03-05T03:06:38.518Z,99.90
2023-03-05T03:09:05.441Z,99.90
2023-03-05T03:14:00.403Z,99.90
2023-03-05T03:18:54.571Z,99.90
2023-03-05T03:21:23.049Z,99.90
2023-03-05T03:26:17.599Z,99.90
2023-03-05T03:31:11.989Z,99.90
2023-03-05T03:33:38.961Z,99.90
2023-03-05T03:36:06.244Z,99.90
2023-03-05T03:38:33.135Z,99.90
2023-03-05T03:43:27.437Z,99.90
2023-03-05T03:45:54.316Z,99.90
2023-03-05T03:50:48.416Z,99.90
2023-03-05T03:53:17.439Z,99.90
2023-03-05T03:58:13.559Z,99.90
2023-03-05T04:00:41.641Z,99.90
2023-03-05T04:03:09.308Z,99.90
2023-03-05T04:05:36.037Z,99.90
2023-03-05T04:08:03.565Z,99.90
2023-03-05T04:12:57.777Z,99.90
2023-03-05T04:17:52.558Z,99.90
2023-03-05T04:20:19.546Z,99.90
2023-03-05T04:22:46.394Z,99.90
2023-03-05T04:25:13.349Z,99.90
2023-03-05T04:27:40.462Z,99.90
2023-03-05T04:30:09.367Z,99.90
2023-03-05T04:32:36.344Z,99.90
2023-03-05T04:35:03.945Z,99.90
2023-03-05T04:37:30.868Z,99.90
2023-03-05T04:39:57.830Z,99.90
2023-03-05T04:42:25.116Z,99.90
2023-03-05T04:47:19.962Z,99.90
2023-03-05T04:49:49.915Z,99.90
2023-03-05T04:52:16.950Z,99.90
2023-03-05T04:54:45.199Z,99.90
2023-03-05T04:57:12.651Z,99.90
2023-03-05T05:02:07.026Z,99.90
2023-03-05T05:04:36.144Z,99.90
2023-03-05T05:07:03.507Z,99.90
2023-03-05T05:09:30.891Z,99.90
2023-03-05T05:16:52.290Z,99.90
2023-03-05T05:19:19.304Z,99.90
2023-03-05T05:24:13.841Z,99.90
2023-03-05T05:26:40.720Z,99.90
2023-03-05T05:29:07.623Z,99.90
2023-03-05T05:31:34.960Z,99.90
2023-03-05T05:34:02.050Z,99.90
2023-03-05T05:38:56.463Z,99.90
2023-03-05T05:41:23.365Z,99.90
2023-03-05T05:43:50.693Z,99.90
2023-03-05T05:46:19.771Z,99.90
2023-03-05T05:51:20.859Z,99.90
2023-03-05T05:53:48.132Z,99.90
2023-03-05T05:56:16.627Z,99.90
2023-03-05T05:58:47.216Z,99.90
2023-03-05T06:01:23.454Z,99.90
2023-03-05T06:06:20.296Z,99.90
2023-03-05T06:08:47.479Z,99.90
2023-03-05T06:11:16.291Z,99.90
2023-03-05T06:13:44.118Z,99.90
2023-03-05T06:16:16.937Z,99.90
2023-03-05T06:18:44.225Z,99.90
2023-03-05T06:21:13.524Z,99.90
2023-03-05T06:26:10.906Z,99.90
2023-03-05T06:28:37.818Z,99.90
2023-03-05T06:31:10.391Z,99.90
2023-03-05T06:33:38.157Z,99.90
2023-03-05T06:36:11.168Z,99.90
2023-03-05T06:38:38.189Z,99.90
2023-03-05T06:41:11.715Z,99.90
2023-03-05T06:43:40.660Z,99.90
2023-03-05T06:46:11.738Z,99.90
2023-03-05T06:48:39.355Z,99.90
2023-03-05T06:51:20.506Z,99.90
2023-03-05T06:53:49.602Z,99.90
2023-03-05T06:56:18.034Z,99.90
2023-03-05T06:58:46.444Z,99.90
2023-03-05T07:01:14.701Z,99.90
2023-03-05T07:03:42.503Z,99.90
2023-03-05T07:06:12.505Z,99.90
2023-03-05T07:08:39.728Z,99.90
2023-03-05T07:11:11.709Z,99.90
2023-03-05T07:13:38.650Z,99.90
2023-03-05T07:16:07.368Z,99.90
2023-03-05T07:18:34.473Z,99.90
2023-03-05T07:21:06.672Z,99.90
2023-03-05T07:23:34.667Z,99.90
2023-03-05T07:26:05.930Z,99.90
2023-03-05T07:28:33.863Z,99.90
2023-03-05T07:31:07.347Z,99.90
2023-03-05T07:33:36.427Z,99.90
2023-03-05T07:36:13.190Z,99.90
2023-03-05T07:38:40.947Z,99.90
2023-03-05T07:41:13.328Z,99.90
2023-03-05T07:43:40.814Z,99.90
2023-03-05T07:46:10.027Z,99.90
2023-03-05T07:48:37.589Z,99.90
2023-03-05T07:51:07.790Z,99.90
2023-03-05T07:53:35.085Z,99.90
2023-03-05T07:56:02.067Z,99.90
2023-03-05T07:58:29.145Z,99.90
2023-03-05T08:00:56.119Z,99.90
2023-03-05T08:03:22.999Z,99.90
2023-03-05T08:05:49.940Z,99.90
2023-03-05T08:08:16.870Z,99.90
2023-03-05T08:10:43.748Z,99.90
2023-03-05T08:13:10.604Z,99.90
2023-03-05T08:15:38.174Z,99.90
2023-03-05T08:18:05.316Z,99.90
2023-03-05T08:20:35.314Z,99.90
2023-03-05T08:25:30.648Z,99.90
2023-03-05T08:27:57.630Z,99.90
2023-03-05T08:30:27.240Z,99.90
2023-03-05T08:32:55.032Z,99.90
2023-03-05T08:35:22.548Z,99.90
2023-03-05T08:42:47.529Z,99.90
2023-03-05T08:47:41.705Z,99.90
2023-03-05T08:50:09.500Z,99.90
2023-03-05T08:52:36.392Z,99.90
2023-03-05T08:55:03.750Z,99.90
2023-03-05T08:57:30.605Z,99.90
2023-03-05T08:59:57.536Z,99.90
2023-03-05T09:02:24.407Z,99.90
2023-03-05T09:04:51.425Z,99.90
2023-03-05T09:07:18.262Z,99.90
2023-03-05T09:09:45.207Z,99.90
2023-03-05T09:12:13.414Z,99.90
2023-03-05T09:14:41.100Z,99.90
2023-03-05T09:17:09.023Z,99.90
2023-03-05T09:19:35.945Z,99.90
2023-03-05T09:22:02.787Z,99.90
2023-03-05T09:24:29.641Z,99.90
2023-03-05T09:27:00.454Z,99.90
2023-03-05T09:29:27.790Z,99.90
2023-03-05T09:31:54.824Z,99.90
2023-03-05T09:34:22.706Z,99.90
2023-03-05T09:36:50.214Z,99.90
2023-03-05T09:39:17.097Z,99.90
2023-03-05T09:42:01.996Z,99.90
2023-03-05T09:44:45.156Z,99.90
2023-03-05T09:47:30.452Z,99.90
2023-03-05T09:50:05.009Z,99.90
2023-03-05T09:52:39.113Z,99.90
2023-03-05T09:55:14.670Z,99.90
2023-03-05T09:57:51.504Z,99.90
2023-03-05T10:00:27.010Z,99.90
2023-03-05T10:02:58.417Z,99.90
2023-03-05T10:05:43.508Z,99.90
2023-03-05T10:08:12.060Z,99.90
2023-03-05T10:10:47.631Z,99.90
2023-03-05T10:13:29.216Z,99.90
2023-03-05T10:16:27.876Z,99.90
2023-03-05T10:19:06.645Z,99.90
2023-03-05T10:21:48.571Z,99.90
2023-03-05T10:31:08.168Z,99.90
2023-03-05T10:36:29.655Z,99.90
2023-03-05T10:39:05.391Z,99.90
2023-03-05T10:42:02.459Z,99.90
2023-03-05T10:44:45.925Z,99.90
2023-03-05T10:47:48.485Z,99.90
2023-03-05T10:50:23.735Z,99.90
2023-03-05T10:52:57.026Z,99.90
2023-03-05T10:57:55.020Z,99.90
2023-03-05T11:00:25.131Z,99.90
2023-03-05T11:02:55.060Z,99.90
2023-03-05T11:05:44.952Z,99.90
2023-03-05T11:08:25.788Z,99.90
2023-03-05T11:11:05.089Z,99.90
2023-03-05T11:13:33.898Z,99.90
2023-03-05T11:16:03.030Z,99.90
2023-03-05T11:18:34.547Z,99.90
2023-03-05T11:21:11.777Z,99.90
2023-03-05T11:26:22.760Z,99.90
2023-03-05T11:28:52.761Z,99.90
2023-03-05T11:31:26.636Z,99.90
2023-03-05T11:34:04.201Z,99.90
2023-03-05T11:36:42.744Z,99.90
2023-03-05T11:39:15.515Z,99.90
2023-03-05T11:41:47.803Z,99.90
2023-03-05T11:44:24.984Z,99.90
2023-03-05T11:46:56.797Z,99.90
2023-03-05T11:49:29.432Z,99.90
2023-03-05T11:52:18.679Z,99.90
2023-03-05T11:54:54.977Z,99.90
2023-03-05T11:57:24.198Z,99.90
2023-03-05T11:59:55.141Z,99.90
2023-03-05T12:02:27.779Z,99.90
2023-03-05T12:07:41.343Z,99.90
2023-03-05T12:10:19.966Z,99.90
2023-03-05T12:12:54.361Z,99.90
2023-03-05T12:15:41.879Z,99.90
2023-03-05T12:18:39.656Z,99.90
2023-03-05T12:21:08.117Z,99.90
2023-03-05T12:23:51.768Z,99.90
2023-03-05T12:31:35.036Z,99.90
2023-03-05T12:34:45.708Z,99.90
2023-03-05T12:37:21.739Z,99.90
2023-03-05T12:40:01.126Z,99.90
2023-03-05T12:42:31.485Z,99.90
2023-03-05T12:45:16.623Z,99.90
2023-03-05T12:47:56.726Z,99.90
2023-03-05T12:50:38.875Z,99.90
2023-03-05T12:56:04.050Z,99.90
2023-03-05T12:58:46.900Z,99.90
2023-03-05T13:01:19.787Z,99.90
2023-03-05T13:04:04.247Z,99.90
2023-03-05T13:09:32.917Z,99.90
2023-03-05T13:12:05.053Z,99.90
2023-03-05T13:14:47.890Z,99.90
2023-03-05T13:17:51.970Z,99.90
2023-03-05T13:20:34.272Z,99.90
2023-03-05T13:23:05.227Z,99.90
2023-03-05T13:28:11.099Z,99.90
2023-03-05T13:33:06.227Z,99.90
2023-03-05T13:35:34.042Z,99.90
2023-03-05T13:43:22.327Z,99.90
2023-03-05T13:45:57.489Z,99.90
2023-03-05T13:48:30.526Z,99.60
2023-03-05T13:50:58.691Z,99.90
2023-03-05T13:53:31.064Z,99.90
2023-03-05T13:56:03.895Z,99.90
2023-03-05T13:58:52.640Z,99.90
2023-03-05T14:01:40.985Z,99.70
2023-03-05T14:04:23.574Z,99.90
2023-03-05T14:07:02.373Z,99.90
2023-03-05T14:20:19.856Z,99.90
2023-03-05T14:22:48.591Z,99.90
2023-03-05T14:25:34.521Z,99.90
2023-03-05T14:28:20.206Z,98.20
2023-03-05T14:38:31.690Z,96.50
2023-03-05T14:50:56.656Z,96.70
2023-03-05T14:53:35.833Z,96.30
2023-03-05T14:58:32.619Z,96.50
2023-03-05T15:19:13.296Z,98.90
2023-03-05T16:03:51.273Z,96.90
2023-03-05T16:06:22.508Z,96.70
2023-03-05T16:43:56.495Z,97.10
2023-03-05T16:48:58.428Z,97.60
2023-03-05T16:58:55.506Z,97.20
2023-03-05T17:16:19.358Z,98.00
2023-03-05T17:26:12.149Z,99.30
2023-03-05T17:28:40.096Z,99.20
2023-03-05T17:33:35.737Z,99.90
2023-03-05T17:43:25.220Z,99.90
2023-03-05T18:30:40.932Z,99.90
2023-03-05T18:52:12.497Z,99.90
2023-03-05T19:02:15.372Z,99.90
2023-03-05T19:15:00.620Z,99.90
2023-03-05T19:17:28.897Z,99.90
2023-03-05T20:29:27.765Z,99.90
2023-03-05T20:31:56.993Z,99.90
2023-03-05T20:39:18.776Z,99.90
2023-03-05T20:41:47.014Z,99.90
2023-03-05T20:46:49.704Z,99.90
2023-03-05T20:49:16.815Z,99.90
2023-03-05T20:59:03.887Z,99.90
2023-03-05T21:01:35.032Z,99.90
2023-03-05T21:11:35.724Z,99.90
2023-03-05T21:36:25.150Z,99.90
2023-03-05T21:38:51.963Z,99.90
2023-03-05T21:46:17.994Z,99.90
2023-03-05T21:48:44.834Z,99.90
2023-03-05T21:51:13.764Z,99.90
2023-03-05T21:53:40.610Z,99.90
2023-03-05T22:01:14.780Z,99.90
2023-03-05T22:06:13.830Z,99.90
2023-03-05T22:11:18.800Z,99.90
2023-03-05T22:16:22.012Z,99.90
2023-03-05T22:21:22.236Z,99.90
2023-03-05T22:26:16.840Z,99.90
2023-03-05T22:33:38.712Z,99.90
2023-03-05T22:36:10.957Z,99.90
2023-03-05T22:41:10.304Z,99.90
2023-03-05T22:43:38.110Z,99.90
2023-03-05T22:46:24.280Z,99.90
2023-03-05T22:48:52.247Z,99.90
2023-03-05T22:53:46.838Z,99.90
2023-03-05T22:56:19.733Z,99.90
2023-03-05T22:58:47.159Z,99.90
2023-03-05T23:01:20.785Z,99.90
2023-03-05T23:06:20.400Z,99.90
2023-03-05T23:16:09.796Z,99.90
2023-03-05T23:18:36.933Z,99.90
2023-03-05T23:21:03.826Z,99.90
2023-03-05T23:25:57.909Z,99.90
2023-03-05T23:28:24.729Z,99.90
2023-03-05T23:33:24.020Z,99.90
2023-03-05T23:35:52.397Z,99.90
2023-03-05T23:40:49.110Z,99.90
2023-03-05T23:43:17.266Z,99.90
2023-03-05T23:45:48.831Z,99.90
2023-03-05T23:48:17.073Z,99.90
2023-03-05T23:50:47.647Z,99.90
2023-03-05T23:53:23.925Z,99.90
2023-03-05T23:55:51.601Z,99.90
2023-03-05T23:58:20.502Z,99.90
